Time;durP1;ratioP1;P1;durP2;ratioP2;P2;SDS_P1;SDS_P2;PMS_P1;PMS_P2;Temp;Humidity;BMP_temperature;BMP_pressure;BME280_temperature;BME280_humidity;BME280_pressure;Samples;Min_cycle;Max_cycle;Signal;HPM_P1;HPM_P2
2023/08/22 00:00:13;;;;;;;9.90;9.60;;;23.00;99.90;;;;;;6184916;23;20203;-81
2023/08/22 00:02:40;;;;;;;10.02;9.73;;;23.00;99.90;;;;;;6182381;23;20247;-81
2023/08/22 00:05:09;;;;;;;10.00;9.70;;;22.90;99.90;;;;;;6177284;23;20204;-81
2023/08/22 00:07:48;;;;;;;9.80;9.50;;;22.90;99.90;;;;;;6176593;23;20211;-81
2023/08/22 00:10:20;;;;;;;9.98;9.68;;;22.80;99.90;;;;;;6180932;23;20196;-81
2023/08/22 00:12:48;;;;;;;10.00;9.70;;;22.50;99.90;;;;;;6171264;23;20212;-82
2023/08/22 00:15:27;;;;;;;10.20;9.90;;;22.50;99.90;;;;;;6172666;23;20224;-81
2023/08/22 00:17:55;;;;;;;9.77;9.48;;;22.50;99.90;;;;;;6167339;23;20264;-80
2023/08/22 00:23:04;;;;;;;9.90;9.60;;;22.50;99.90;;;;;;6169217;23;20220;-81
2023/08/22 00:25:35;;;;;;;9.80;9.50;;;22.60;99.90;;;;;;6170561;23;20200;-81
2023/08/22 00:28:02;;;;;;;9.98;9.68;;;22.50;99.90;;;;;;6170304;23;20200;-81
2023/08/22 00:30:41;;;;;;;9.77;9.48;;;22.50;99.90;;;;;;6170609;23;20239;-82
2023/08/22 00:33:10;;;;;;;9.80;9.50;;;22.50;99.90;;;;;;6171640;23;20219;-81
2023/08/22 00:35:49;;;;;;;9.88;9.57;;;22.50;99.90;;;;;;6173022;23;20199;-81
2023/08/22 00:38:17;;;;;;;9.90;9.60;;;22.50;99.90;;;;;;6172054;23;20231;-81
2023/08/22 00:40:50;;;;;;;9.70;9.40;;;22.50;99.90;;;;;;6171363;23;20208;-81
2023/08/22 00:43:17;;;;;;;10.07;9.77;;;22.50;99.90;;;;;;6172695;23;20188;-81
2023/08/22 00:45:46;;;;;;;10.02;9.73;;;22.50;99.90;;;;;;6172992;23;20212;-81
2023/08/22 00:48:24;;;;;;;10.02;9.73;;;22.50;99.90;;;;;;6172545;23;20482;-81
2023/08/22 00:50:52;;;;;;;9.80;9.50;;;22.50;99.90;;;;;;6171899;23;20188;-81
2023/08/22 00:53:26;;;;;;;9.90;9.60;;;22.40;99.90;;;;;;6170626;23;20252;-81
2023/08/22 00:55:54;;;;;;;9.60;9.30;;;22.40;99.90;;;;;;6170580;23;20251;-81
2023/08/22 00:58:22;;;;;;;9.57;9.27;;;22.40;99.90;;;;;;6171968;23;20196;-82
2023/08/22 01:00:51;;;;;;;9.60;9.30;;;22.40;99.90;;;;;;6172701;23;20268;-81
2023/08/22 01:03:31;;;;;;;9.60;9.30;;;22.40;99.90;;;;;;6171969;23;20205;-81
2023/08/22 01:06:09;;;;;;;9.55;9.25;;;22.30;99.90;;;;;;6173044;23;20233;-81
2023/08/22 01:08:39;;;;;;;9.48;9.18;;;22.30;99.90;;;;;;6171536;23;20192;-81
2023/08/22 01:11:16;;;;;;;9.63;9.32;;;22.30;99.90;;;;;;6171796;23;20188;-81
2023/08/22 01:13:47;;;;;;;9.50;9.20;;;22.30;99.90;;;;;;6172556;23;20188;-81
2023/08/22 01:16:15;;;;;;;9.70;9.40;;;22.30;99.90;;;;;;6168575;23;20216;-81
2023/08/22 01:18:44;;;;;;;9.57;9.27;;;22.30;99.90;;;;;;6174976;23;20197;-80
2023/08/22 01:21:22;;;;;;;9.77;9.48;;;22.30;99.90;;;;;;6172652;23;20204;-81
2023/08/22 01:23:54;;;;;;;9.68;9.38;;;22.20;99.90;;;;;;6173281;23;20200;-82
2023/08/22 01:26:22;;;;;;;9.50;9.20;;;22.20;99.90;;;;;;6171850;23;21039;-81
2023/08/22 01:29:08;;;;;;;9.60;9.30;;;22.20;99.90;;;;;;6171201;23;20275;-83
2023/08/22 01:31:46;;;;;;;9.90;9.60;;;22.20;99.90;;;;;;6170610;23;20296;-81
2023/08/22 01:34:33;;;;;;;9.65;9.35;;;22.20;99.90;;;;;;6172344;23;20208;-82
2023/08/22 01:37:03;;;;;;;9.80;9.50;;;22.20;99.90;;;;;;6172737;23;20215;-83
2023/08/22 01:39:35;;;;;;;9.90;9.60;;;22.20;99.90;;;;;;6172534;23;20199;-82
2023/08/22 01:42:03;;;;;;;9.90;9.60;;;22.20;99.90;;;;;;6172101;23;20231;-82
2023/08/22 01:44:31;;;;;;;9.88;9.57;;;22.20;99.90;;;;;;6171757;23;20273;-83
2023/08/22 01:47:09;;;;;;;9.85;9.55;;;22.10;99.90;;;;;;6172556;23;20211;-83
2023/08/22 01:49:38;;;;;;;9.75;9.45;;;22.10;99.90;;;;;;6172176;23;20279;-81
2023/08/22 01:52:08;;;;;;;10.15;9.85;;;22.10;99.90;;;;;;6172232;23;20208;-82
2023/08/22 01:57:33;;;;;;;9.70;9.40;;;22.10;99.90;;;;;;6172460;23;20200;-83
2023/08/22 02:00:12;;;;;;;9.70;9.40;;;22.10;99.90;;;;;;6171608;23;20204;-82
2023/08/22 02:02:41;;;;;;;9.63;9.32;;;22.10;99.90;;;;;;6173146;23;20203;-82
2023/08/22 02:05:20;;;;;;;9.50;9.20;;;22.00;99.90;;;;;;6173279;23;20231;-82
2023/08/22 02:07:48;;;;;;;9.68;9.38;;;22.00;99.90;;;;;;6172810;23;20216;-82
2023/08/22 02:13:24;;;;;;;9.63;9.32;;;21.90;99.90;;;;;;6179243;22;20200;-83
2023/08/22 02:15:52;;;;;;;9.65;9.35;;;21.90;99.90;;;;;;6188527;23;20188;-82
2023/08/22 02:21:02;;;;;;;9.57;9.27;;;21.90;99.90;;;;;;6171100;23;20192;-83
2023/08/22 02:23:32;;;;;;;9.43;9.13;;;21.80;99.90;;;;;;6172941;23;20228;-80
2023/08/22 02:26:02;;;;;;;9.20;8.90;;;21.90;99.90;;;;;;6173700;23;20196;-82
2023/08/22 02:28:29;;;;;;;9.20;8.90;;;21.90;99.90;;;;;;6173661;23;20200;-82
2023/08/22 02:31:09;;;;;;;9.32;9.02;;;21.90;99.90;;;;;;6172604;23;20197;-82
2023/08/22 02:33:37;;;;;;;9.50;9.20;;;21.90;99.90;;;;;;6171939;23;20216;-82
2023/08/22 02:36:07;;;;;;;9.30;9.00;;;21.80;99.90;;;;;;6172232;23;20206;-82
2023/08/22 02:38:45;;;;;;;9.10;8.80;;;21.80;99.90;;;;;;6172357;23;20204;-82
2023/08/22 02:44:12;;;;;;;9.23;8.93;;;21.80;99.90;;;;;;6168835;23;20265;-82
2023/08/22 02:46:40;;;;;;;9.20;8.90;;;21.80;99.90;;;;;;6172300;23;20232;-82
2023/08/22 02:49:09;;;;;;;9.20;8.90;;;21.80;99.90;;;;;;6172100;23;20195;-81
2023/08/22 02:51:48;;;;;;;9.15;8.85;;;21.80;99.90;;;;;;6172466;23;20200;-82
2023/08/22 02:54:17;;;;;;;9.40;9.10;;;21.80;99.90;;;;;;6146653;23;20222;-82
2023/08/22 02:56:50;;;;;;;9.40;9.10;;;21.90;99.90;;;;;;6186576;23;20199;-82
2023/08/22 02:59:20;;;;;;;9.30;9.00;;;21.90;99.90;;;;;;6188457;23;20196;-82
2023/08/22 03:01:47;;;;;;;9.30;9.00;;;21.90;99.90;;;;;;6188094;22;20200;-83
2023/08/22 03:04:15;;;;;;;9.20;8.90;;;21.80;99.90;;;;;;6181373;23;20196;-82
2023/08/22 03:06:54;;;;;;;9.13;8.82;;;21.80;99.90;;;;;;6174415;23;20185;-82
2023/08/22 03:09:23;;;;;;;8.88;8.68;;;21.80;99.90;;;;;;6174964;23;20235;-82
2023/08/22 03:14:49;;;;;;;8.75;8.55;;;21.70;99.90;;;;;;6168518;23;20200;-81
2023/08/22 03:17:17;;;;;;;8.50;8.30;;;21.70;99.90;;;;;;6170693;23;20243;-82
2023/08/22 03:19:46;;;;;;;8.75;8.55;;;21.70;99.90;;;;;;6171240;23;20205;-82
2023/08/22 03:22:16;;;;;;;8.88;8.68;;;21.70;99.90;;;;;;6170644;23;20687;-82
2023/08/22 03:24:54;;;;;;;8.70;8.50;;;21.70;99.90;;;;;;6172183;23;20207;-82
2023/08/22 03:27:26;;;;;;;8.90;8.70;;;21.70;99.90;;;;;;6172300;23;20204;-82
2023/08/22 03:29:53;;;;;;;9.32;9.02;;;21.70;99.90;;;;;;6175996;23;20203;-81
2023/08/22 03:32:32;;;;;;;8.90;8.70;;;21.70;99.90;;;;;;6173650;23;20223;-82
2023/08/22 03:35:00;;;;;;;8.80;8.60;;;21.70;99.90;;;;;;6172848;23;20259;-82
2023/08/22 03:37:40;;;;;;;9.02;8.73;;;21.70;99.90;;;;;;6172099;23;20227;-82
2023/08/22 03:40:09;;;;;;;9.05;8.85;;;21.70;99.90;;;;;;6171670;23;20212;-82
2023/08/22 03:42:41;;;;;;;8.90;8.70;;;21.70;99.90;;;;;;6171967;23;20200;-81
2023/08/22 03:45:09;;;;;;;8.95;8.75;;;21.60;99.90;;;;;;6172065;23;20204;-82
2023/08/22 03:47:36;;;;;;;9.50;9.20;;;21.60;99.90;;;;;;6172548;23;20196;-82
2023/08/22 03:50:04;;;;;;;9.48;9.18;;;21.60;99.90;;;;;;6172352;23;20216;-82
2023/08/22 03:52:36;;;;;;;9.40;9.10;;;21.60;99.90;;;;;;6172484;23;20210;-82
2023/08/22 03:55:05;;;;;;;9.93;9.63;;;21.60;99.90;;;;;;6171883;23;20235;-82
2023/08/22 03:57:45;;;;;;;10.18;9.88;;;21.50;99.90;;;;;;6171866;23;20207;-82
2023/08/22 04:00:18;;;;;;;10.15;9.85;;;21.50;99.90;;;;;;6171659;23;20195;-82
2023/08/22 04:02:45;;;;;;;10.10;9.80;;;21.40;99.90;;;;;;6171888;23;20216;-82
2023/08/22 04:05:12;;;;;;;10.20;9.90;;;21.40;99.90;;;;;;6172919;23;20207;-82
2023/08/22 04:07:41;;;;;;;10.20;9.90;;;21.40;99.90;;;;;;6172422;23;20220;-82
2023/08/22 04:10:10;;;;;;;10.30;10.00;;;21.40;99.90;;;;;;6170038;23;20271;-82
2023/08/22 04:12:43;;;;;;;10.40;10.10;;;21.40;99.90;;;;;;6170426;23;20230;-82
2023/08/22 04:15:13;;;;;;;10.35;10.05;;;21.50;99.90;;;;;;6171465;23;20207;-82
2023/08/22 04:17:41;;;;;;;10.23;9.93;;;21.50;99.90;;;;;;6172793;23;20195;-82
2023/08/22 04:20:10;;;;;;;10.30;10.00;;;21.60;99.90;;;;;;6173148;23;20230;-82
2023/08/22 04:22:40;;;;;;;10.30;10.00;;;21.50;99.90;;;;;;6172683;23;20200;-82
2023/08/22 04:25:10;;;;;;;10.30;10.00;;;21.50;99.90;;;;;;6173182;23;20192;-82
2023/08/22 04:27:38;;;;;;;10.75;10.45;;;21.50;99.90;;;;;;6173938;23;20188;-82
2023/08/22 04:30:08;;;;;;;10.48;10.18;;;21.60;99.90;;;;;;6174695;23;20242;-80
2023/08/22 04:32:47;;;;;;;10.30;10.00;;;21.60;99.90;;;;;;6174598;23;20204;-82
2023/08/22 04:35:15;;;;;;;10.30;10.00;;;21.60;99.90;;;;;;6172230;23;20207;-82
2023/08/22 04:37:46;;;;;;;10.30;10.00;;;21.50;99.90;;;;;;6171568;23;20207;-83
2023/08/22 04:40:15;;;;;;;10.02;9.73;;;21.60;99.90;;;;;;6172970;23;20232;-83
2023/08/22 04:42:44;;;;;;;10.10;9.80;;;21.60;99.90;;;;;;6172686;23;20200;-82
2023/08/22 04:45:23;;;;;;;9.98;9.68;;;21.60;99.90;;;;;;6173111;23;20212;-82
2023/08/22 04:47:53;;;;;;;9.90;9.60;;;21.60;99.90;;;;;;6175621;23;20208;-81
2023/08/22 04:50:21;;;;;;;9.93;9.63;;;21.60;99.90;;;;;;6174835;23;20216;-82
2023/08/22 04:52:50;;;;;;;9.55;9.25;;;21.60;99.90;;;;;;6173894;23;20200;-82
2023/08/22 04:55:18;;;;;;;9.48;9.18;;;21.70;99.90;;;;;;6179533;23;20228;-82
2023/08/22 04:57:50;;;;;;;9.85;9.55;;;21.70;99.90;;;;;;6176260;23;20192;-82
2023/08/22 05:00:18;;;;;;;9.90;9.60;;;21.70;99.90;;;;;;6176335;23;20197;-82
2023/08/22 05:02:57;;;;;;;9.65;9.35;;;21.70;99.90;;;;;;6175236;23;20204;-82
2023/08/22 05:05:29;;;;;;;9.77;9.48;;;21.80;99.90;;;;;;6174899;23;20204;-81
2023/08/22 05:07:56;;;;;;;9.50;9.20;;;21.80;99.90;;;;;;6174324;23;20192;-81
2023/08/22 05:10:25;;;;;;;9.65;9.35;;;21.80;99.90;;;;;;6173670;23;20283;-82
2023/08/22 05:12:54;;;;;;;9.65;9.35;;;21.80;99.90;;;;;;6172443;23;20230;-82
2023/08/22 05:15:34;;;;;;;9.80;9.50;;;21.90;99.90;;;;;;6171661;23;20227;-81
2023/08/22 05:18:02;;;;;;;10.05;9.75;;;21.90;99.90;;;;;;6171906;23;20193;-82
2023/08/22 05:20:35;;;;;;;9.70;9.40;;;22.00;99.90;;;;;;6172458;23;20204;-82
2023/08/22 05:23:03;;;;;;;9.80;9.50;;;22.10;99.90;;;;;;6172543;23;20208;-82
2023/08/22 05:25:31;;;;;;;9.70;9.40;;;22.10;99.90;;;;;;6173212;23;20192;-82
2023/08/22 05:28:00;;;;;;;10.00;9.70;;;22.20;99.90;;;;;;6173864;23;20188;-82
2023/08/22 05:33:09;;;;;;;10.07;9.77;;;22.30;99.90;;;;;;6172681;23;20611;-82
2023/08/22 05:35:39;;;;;;;9.95;9.65;;;22.40;99.90;;;;;;6173556;23;20212;-82
2023/08/22 05:38:06;;;;;;;10.10;9.80;;;22.40;99.90;;;;;;6173936;23;20191;-82
2023/08/22 05:40:35;;;;;;;10.00;9.70;;;22.50;99.90;;;;;;6176942;23;20228;-81
2023/08/22 05:43:04;;;;;;;9.98;9.68;;;22.50;99.90;;;;;;6173532;23;20203;-82
2023/08/22 05:45:34;;;;;;;9.90;9.60;;;22.50;99.90;;;;;;6174412;23;20200;-82
2023/08/22 05:48:13;;;;;;;9.90;9.60;;;22.50;99.90;;;;;;6175285;23;20203;-83
2023/08/22 05:50:45;;;;;;;9.88;9.57;;;22.50;99.90;;;;;;6173325;23;20188;-82
2023/08/22 05:53:12;;;;;;;9.85;9.55;;;22.60;99.90;;;;;;6175190;23;20199;-82
2023/08/22 05:55:39;;;;;;;9.80;9.50;;;22.60;99.90;;;;;;6173974;23;20539;-79
2023/08/22 05:58:06;;;;;;;9.90;9.60;;;22.70;99.90;;;;;;6167828;23;20204;-80
2023/08/22 06:00:34;;;;;;;10.05;9.75;;;22.70;99.90;;;;;;6167910;23;20259;-80
2023/08/22 06:03:01;;;;;;;9.98;9.68;;;22.80;99.90;;;;;;6170144;23;20203;-80
2023/08/22 06:05:28;;;;;;;9.93;9.63;;;22.90;99.90;;;;;;6167236;23;20223;-80
2023/08/22 06:07:56;;;;;;;9.77;9.48;;;22.90;99.90;;;;;;6167468;23;20280;-80
2023/08/22 06:10:23;;;;;;;10.00;9.70;;;23.00;99.90;;;;;;6168306;23;20216;-79
2023/08/22 06:12:50;;;;;;;9.90;9.60;;;23.00;99.90;;;;;;6167046;23;20204;-79
2023/08/22 06:15:17;;;;;;;9.98;9.68;;;23.10;99.90;;;;;;6168800;23;20201;-79
2023/08/22 06:17:45;;;;;;;10.27;9.98;;;23.10;99.90;;;;;;6168720;23;20279;-80
2023/08/22 06:20:12;;;;;;;10.10;9.80;;;23.20;99.90;;;;;;6169094;23;20203;-80
2023/08/22 06:22:39;;;;;;;10.05;9.75;;;23.20;99.90;;;;;;6170269;23;20307;-79
2023/08/22 06:25:09;;;;;;;10.32;10.02;;;23.20;99.90;;;;;;6170794;23;20220;-80
2023/08/22 06:27:36;;;;;;;10.30;10.00;;;23.20;99.90;;;;;;6175594;23;20235;-80
2023/08/22 06:30:05;;;;;;;10.25;9.95;;;23.30;99.90;;;;;;6179991;23;20227;-82
2023/08/22 06:32:32;;;;;;;10.50;10.20;;;23.30;99.90;;;;;;6183399;22;20348;-80
2023/08/22 06:35:00;;;;;;;10.52;10.23;;;23.40;99.90;;;;;;6180884;23;20234;-80
2023/08/22 06:37:27;;;;;;;10.32;10.02;;;23.50;99.90;;;;;;6181273;23;20204;-80
2023/08/22 06:39:54;;;;;;;10.27;9.98;;;23.60;99.90;;;;;;6183534;23;20207;-81
2023/08/22 06:42:23;;;;;;;10.30;10.00;;;23.70;99.90;;;;;;6183884;23;20187;-81
2023/08/22 06:44:50;;;;;;;10.50;10.20;;;23.80;99.90;;;;;;6185260;23;20198;-80
2023/08/22 06:47:17;;;;;;;10.50;10.20;;;23.90;99.90;;;;;;6186836;23;20204;-81
2023/08/22 06:49:44;;;;;;;10.48;10.18;;;24.00;99.90;;;;;;6184934;23;20207;-80
2023/08/22 06:52:11;;;;;;;10.50;10.20;;;24.00;99.90;;;;;;6183459;23;20236;-81
2023/08/22 06:54:38;;;;;;;10.57;10.27;;;24.20;99.90;;;;;;6182220;23;20232;-82
2023/08/22 06:57:05;;;;;;;10.55;10.25;;;24.30;99.90;;;;;;6174920;23;20240;-82
2023/08/22 06:59:34;;;;;;;10.55;10.25;;;24.30;99.90;;;;;;6169659;23;20196;-81
2023/08/22 07:02:01;;;;;;;10.70;10.40;;;24.30;99.90;;;;;;6170986;23;20316;-79
2023/08/22 07:04:31;;;;;;;10.60;10.30;;;24.30;99.90;;;;;;6169454;23;20228;-82
2023/08/22 07:06:58;;;;;;;10.85;10.55;;;24.40;99.90;;;;;;6169413;23;20231;-80
2023/08/22 07:09:26;;;;;;;10.80;10.50;;;24.50;99.90;;;;;;6168565;23;20195;-80
2023/08/22 07:11:53;;;;;;;10.90;10.60;;;24.70;99.90;;;;;;6167137;23;20214;-80
2023/08/22 07:14:20;;;;;;;10.25;9.95;;;24.80;99.90;;;;;;6167501;23;20208;-81
2023/08/22 07:16:49;;;;;;;10.10;9.80;;;24.90;99.90;;;;;;6168234;23;20192;-83
2023/08/22 07:19:17;;;;;;;10.32;10.02;;;25.00;99.90;;;;;;6167800;23;20227;-81
2023/08/22 07:21:44;;;;;;;10.40;10.10;;;25.10;99.90;;;;;;6167407;23;20211;-80
2023/08/22 07:24:11;;;;;;;10.43;10.13;;;25.20;99.90;;;;;;6178211;23;20212;-80
2023/08/22 07:26:38;;;;;;;10.07;9.77;;;25.30;99.90;;;;;;6177468;23;20196;-78
2023/08/22 07:29:06;;;;;;;10.80;10.50;;;25.40;99.90;;;;;;6169000;23;20226;-78
2023/08/22 07:31:33;;;;;;;10.70;10.40;;;25.60;99.90;;;;;;6166269;23;20208;-81
2023/08/22 07:34:01;;;;;;;10.85;10.55;;;25.60;99.90;;;;;;6166744;23;20196;-80
2023/08/22 07:36:28;;;;;;;10.30;10.00;;;25.70;99.90;;;;;;6166261;23;20299;-78
2023/08/22 07:38:56;;;;;;;10.50;10.20;;;25.80;99.90;;;;;;6165388;23;20200;-81
2023/08/22 07:41:23;;;;;;;10.27;9.98;;;25.90;99.90;;;;;;6166743;23;20255;-81
2023/08/22 07:43:50;;;;;;;10.25;9.95;;;26.00;99.90;;;;;;6167566;23;20196;-78
2023/08/22 07:46:19;;;;;;;10.50;10.20;;;26.10;99.90;;;;;;6168143;23;20207;-81
2023/08/22 07:48:46;;;;;;;10.20;9.90;;;26.20;99.90;;;;;;6168490;23;20196;-79
2023/08/22 07:51:15;;;;;;;11.07;10.77;;;26.40;99.90;;;;;;6172863;23;20247;-77
2023/08/22 07:53:42;;;;;;;10.73;10.43;;;26.50;99.90;;;;;;6170804;23;20231;-79
2023/08/22 07:56:09;;;;;;;10.70;10.40;;;26.70;99.90;;;;;;6169393;23;20227;-83
2023/08/22 07:58:36;;;;;;;10.85;10.55;;;26.80;99.90;;;;;;6179948;23;20231;-81
2023/08/22 08:01:05;;;;;;;10.90;10.60;;;26.90;99.90;;;;;;6173822;23;20196;-78
2023/08/22 08:03:32;;;;;;;11.20;10.90;;;26.90;99.90;;;;;;6170085;23;20275;-77
2023/08/22 08:06:00;;;;;;;10.85;10.55;;;26.90;99.90;;;;;;6169049;23;20212;-77
2023/08/22 08:08:28;;;;;;;10.90;10.60;;;27.20;99.90;;;;;;6167404;23;20315;-77
2023/08/22 08:10:55;;;;;;;11.18;10.88;;;27.30;99.90;;;;;;6165645;23;20224;-77
2023/08/22 08:13:22;;;;;;;10.98;10.68;;;27.50;99.90;;;;;;6165217;23;20267;-78
2023/08/22 08:15:50;;;;;;;11.02;10.73;;;27.60;99.90;;;;;;6164631;23;20210;-77
2023/08/22 08:18:17;;;;;;;11.18;10.88;;;27.80;99.90;;;;;;6165286;23;20252;-77
2023/08/22 08:20:44;;;;;;;11.10;10.80;;;28.00;99.90;;;;;;6164676;23;20192;-77
2023/08/22 08:23:11;;;;;;;10.90;10.60;;;28.30;99.90;;;;;;6164535;23;20285;-75
2023/08/22 08:25:40;;;;;;;11.15;10.85;;;28.50;99.90;;;;;;6164518;23;20208;-75
2023/08/22 08:28:07;;;;;;;11.20;10.90;;;28.60;99.90;;;;;;6164679;23;20204;-76
2023/08/22 08:30:34;;;;;;;10.93;10.63;;;28.60;99.90;;;;;;6164945;23;20204;-75
2023/08/22 08:33:04;;;;;;;11.07;10.77;;;28.60;99.90;;;;;;6165232;23;20268;-76
2023/08/22 08:35:31;;;;;;;11.30;11.00;;;28.70;99.90;;;;;;6165085;23;20211;-76
2023/08/22 08:37:59;;;;;;;11.20;10.90;;;28.80;99.90;;;;;;6164286;23;20228;-77
2023/08/22 08:40:30;;;;;;;11.07;10.77;;;28.80;99.90;;;;;;6165263;23;20196;-76
2023/08/22 08:43:00;;;;;;;11.07;10.77;;;29.00;99.90;;;;;;6165133;23;20254;-76
2023/08/22 08:45:29;;;;;;;10.88;10.57;;;29.30;99.90;;;;;;6164408;23;20196;-78
2023/08/22 08:47:59;;;;;;;10.82;10.52;;;29.40;99.90;;;;;;6164831;23;20279;-77
2023/08/22 08:50:27;;;;;;;10.90;10.60;;;29.70;99.90;;;;;;6164603;23;20200;-76
2023/08/22 08:52:54;;;;;;;10.75;10.45;;;29.90;99.90;;;;;;6164411;23;20275;-76
2023/08/22 08:55:21;;;;;;;10.70;10.40;;;30.10;99.90;;;;;;6166385;23;20295;-77
2023/08/22 08:57:49;;;;;;;10.75;10.45;;;30.30;99.90;;;;;;6170679;23;20216;-76
2023/08/22 09:00:18;;;;;;;10.82;10.52;;;30.10;99.90;;;;;;6171106;23;20196;-78
2023/08/22 09:02:45;;;;;;;10.80;10.50;;;30.10;99.90;;;;;;6169127;23;20204;-76
2023/08/22 09:05:12;;;;;;;10.70;10.40;;;30.20;99.90;;;;;;6167539;23;20299;-77
2023/08/22 09:07:39;;;;;;;10.68;10.38;;;30.40;99.90;;;;;;6166847;23;20216;-75
2023/08/22 09:10:07;;;;;;;10.50;10.20;;;30.70;99.90;;;;;;6166030;23;20228;-76
2023/08/22 09:12:36;;;;;;;10.73;10.43;;;30.70;99.90;;;;;;6164579;23;20216;-76
2023/08/22 09:15:08;;;;;;;10.77;10.48;;;30.80;99.90;;;;;;6164344;23;20280;-75
2023/08/22 09:17:38;;;;;;;10.65;10.35;;;31.10;99.90;;;;;;6164491;23;20192;-76
2023/08/22 09:20:10;;;;;;;10.77;10.48;;;31.10;99.90;;;;;;6161387;23;20283;-77
2023/08/22 09:22:37;;;;;;;10.57;10.27;;;31.50;99.90;;;;;;6163675;23;20287;-77
2023/08/22 09:25:07;;;;;;;11.10;10.80;;;32.10;99.90;;;;;;6163555;23;20203;-76
2023/08/22 09:27:34;;;;;;;11.07;10.77;;;32.40;99.90;;;;;;6164541;23;20240;-76
2023/08/22 09:30:04;;;;;;;10.93;10.63;;;32.70;99.90;;;;;;6165322;23;20250;-77
2023/08/22 09:32:31;;;;;;;10.63;10.32;;;33.00;99.90;;;;;;6164435;23;20208;-78
2023/08/22 09:35:02;;;;;;;10.90;10.60;;;32.50;99.90;;;;;;6164834;23;20204;-79
2023/08/22 09:37:33;;;;;;;10.65;10.35;;;32.40;99.90;;;;;;6165561;23;20212;-77
2023/08/22 09:40:01;;;;;;;10.80;10.50;;;32.40;99.90;;;;;;6164823;23;20234;-78
2023/08/22 09:42:30;;;;;;;10.70;10.40;;;32.70;99.90;;;;;;6164515;23;20278;-77
2023/08/22 09:44:57;;;;;;;11.30;11.00;;;32.60;99.90;;;;;;6165176;23;20380;-76
2023/08/22 09:47:29;;;;;;;10.90;10.60;;;32.90;99.90;;;;;;6165214;23;20308;-77
2023/08/22 09:50:02;;;;;;;10.95;10.65;;;33.00;99.90;;;;;;6163762;23;20203;-77
2023/08/22 09:52:30;;;;;;;10.93;10.63;;;33.20;99.90;;;;;;6163267;23;20236;-76
2023/08/22 09:54:57;;;;;;;10.95;10.65;;;33.50;99.90;;;;;;6164441;23;20292;-77
2023/08/22 09:57:25;;;;;;;11.10;10.80;;;33.70;99.90;;;;;;6175650;22;20244;-77
2023/08/22 09:59:52;;;;;;;10.85;10.55;;;33.90;99.90;;;;;;6166063;23;20196;-77
2023/08/22 10:02:20;;;;;;;10.77;10.48;;;33.90;99.90;;;;;;6163431;23;20263;-77
2023/08/22 10:04:47;;;;;;;10.85;10.55;;;33.70;99.90;;;;;;6163933;23;20295;-77
2023/08/22 10:07:16;;;;;;;10.85;10.55;;;33.90;99.90;;;;;;6164252;23;20212;-76
2023/08/22 10:09:44;;;;;;;10.88;10.57;;;34.20;99.90;;;;;;6164624;23;20264;-77
2023/08/22 10:12:15;;;;;;;10.73;10.43;;;34.40;99.90;;;;;;6164589;23;20364;-79
2023/08/22 10:14:46;;;;;;;11.00;10.70;;;34.20;99.90;;;;;;6165544;23;20196;-77
2023/08/22 10:17:15;;;;;;;11.00;10.70;;;33.90;99.90;;;;;;6164616;23;20207;-77
2023/08/22 10:19:43;;;;;;;10.90;10.60;;;34.00;99.90;;;;;;6163922;23;20192;-77
2023/08/22 10:22:12;;;;;;;11.13;10.82;;;34.40;99.90;;;;;;6164606;23;20271;-77
2023/08/22 10:24:42;;;;;;;11.00;10.70;;;34.60;99.90;;;;;;6166669;23;20192;-77
2023/08/22 10:27:12;;;;;;;11.05;10.75;;;34.40;99.90;;;;;;6167296;23;20283;-77
2023/08/22 10:29:45;;;;;;;11.00;10.70;;;34.20;99.90;;;;;;6165121;23;20212;-77
2023/08/22 10:32:22;;;;;;;10.90;10.60;;;34.20;99.90;;;;;;6164292;23;20308;-77
2023/08/22 10:35:27;;;;;;;10.90;10.60;;;34.00;99.90;;;;;;6164727;23;20196;-77
2023/08/22 10:37:56;;;;;;;10.82;10.52;;;34.30;99.90;;;;;;6164851;23;20184;-77
2023/08/22 10:40:34;;;;;;;10.65;10.35;;;34.30;99.90;;;;;;6164925;23;20215;-77
2023/08/22 10:43:10;;;;;;;11.00;10.70;;;34.20;99.90;;;;;;6164098;23;20208;-77
2023/08/22 10:45:42;;;;;;;10.68;10.38;;;34.20;99.90;;;;;;6163888;23;20188;-77
2023/08/22 10:48:11;;;;;;;10.68;10.38;;;34.20;99.90;;;;;;6164949;23;20259;-77
2023/08/22 10:50:42;;;;;;;11.15;10.85;;;34.10;99.90;;;;;;6164201;23;20200;-77
2023/08/22 10:53:28;;;;;;;11.18;10.88;;;33.90;99.90;;;;;;6163398;23;20219;-77
2023/08/22 10:55:57;;;;;;;11.20;10.90;;;33.80;99.90;;;;;;6163570;23;20204;-76
2023/08/22 10:58:38;;;;;;;11.38;11.07;;;33.80;99.90;;;;;;6175803;23;20243;-77
2023/08/22 11:01:15;;;;;;;11.27;10.98;;;33.90;99.90;;;;;;6170345;23;20197;-77
2023/08/22 11:03:43;;;;;;;11.20;10.90;;;34.60;99.90;;;;;;6169370;23;20278;-77
2023/08/22 11:06:17;;;;;;;11.27;10.98;;;34.80;99.90;;;;;;6167677;23;20200;-77
2023/08/22 11:08:44;;;;;;;11.02;10.73;;;34.80;99.90;;;;;;6166062;23;20218;-77
2023/08/22 11:11:19;;;;;;;10.93;10.63;;;34.70;99.90;;;;;;6165136;23;20204;-77
2023/08/22 11:13:46;;;;;;;11.15;10.85;;;34.90;99.90;;;;;;6165203;23;20188;-77
2023/08/22 11:16:16;;;;;;;11.00;10.70;;;34.70;99.90;;;;;;6163382;23;20256;-77
2023/08/22 11:18:43;;;;;;;10.90;10.60;;;34.40;99.90;;;;;;6164461;23;20274;-77
2023/08/22 11:21:11;;;;;;;11.05;10.75;;;34.20;99.90;;;;;;6164291;23;20287;-78
2023/08/22 11:23:39;;;;;;;11.20;10.90;;;34.60;99.90;;;;;;6163616;23;20200;-77
2023/08/22 11:26:09;;;;;;;11.10;10.80;;;34.50;99.90;;;;;;6163543;23;20256;-77
2023/08/22 11:28:38;;;;;;;10.85;10.55;;;34.70;99.90;;;;;;6163475;23;20205;-77
2023/08/22 11:31:06;;;;;;;10.80;10.50;;;34.80;99.90;;;;;;6162544;23;20216;-77
2023/08/22 11:33:46;;;;;;;10.65;10.35;;;34.80;99.90;;;;;;6162836;23;20196;-77
2023/08/22 11:36:13;;;;;;;10.88;10.57;;;34.40;99.90;;;;;;6163560;23;20204;-77
2023/08/22 11:38:42;;;;;;;10.57;10.27;;;34.10;99.90;;;;;;6164762;23;20192;-77
2023/08/22 11:41:10;;;;;;;10.80;10.50;;;34.10;99.90;;;;;;6163818;23;20192;-77
2023/08/22 11:43:48;;;;;;;11.00;10.70;;;34.50;99.90;;;;;;6164035;23;20193;-77
2023/08/22 11:46:15;;;;;;;10.70;10.40;;;34.50;99.90;;;;;;6164033;23;20192;-77
2023/08/22 11:48:43;;;;;;;10.75;10.45;;;34.70;99.90;;;;;;6164438;23;20248;-77
2023/08/22 11:51:19;;;;;;;11.02;10.73;;;34.80;99.90;;;;;;6163970;23;20196;-77
2023/08/22 11:53:48;;;;;;;10.82;10.52;;;34.90;99.90;;;;;;6163888;23;20192;-77
2023/08/22 11:56:16;;;;;;;10.60;10.30;;;34.60;99.90;;;;;;6174094;23;20210;-78
2023/08/22 11:58:53;;;;;;;10.70;10.40;;;34.50;99.90;;;;;;6164495;23;20208;-79
2023/08/22 12:01:23;;;;;;;10.57;10.27;;;34.20;99.90;;;;;;6162709;23;20227;-79
2023/08/22 12:03:55;;;;;;;10.73;10.43;;;34.20;99.90;;;;;;6163118;23;20197;-79
2023/08/22 12:06:22;;;;;;;11.00;10.70;;;34.50;99.90;;;;;;6162708;23;20200;-79
2023/08/22 12:08:59;;;;;;;11.18;10.88;;;34.80;99.90;;;;;;6163665;23;20279;-79
2023/08/22 12:11:28;;;;;;;11.13;10.82;;;35.20;99.90;;;;;;6163625;23;20206;-79
2023/08/22 12:13:56;;;;;;;11.25;10.95;;;35.60;99.90;;;;;;6163093;23;20231;-79
2023/08/22 12:16:23;;;;;;;11.15;10.85;;;35.70;99.90;;;;;;6163461;23;20204;-79
2023/08/22 12:18:51;;;;;;;11.00;10.70;;;36.00;99.90;;;;;;6164375;23;20243;-79
2023/08/22 12:21:18;;;;;;;10.70;10.40;;;35.90;99.90;;;;;;6164425;23;20283;-79
2023/08/22 12:23:45;;;;;;;10.65;10.35;;;35.50;99.90;;;;;;6163744;23;20220;-79
2023/08/22 12:26:12;;;;;;;11.10;10.80;;;35.10;99.90;;;;;;6163926;23;20279;-79
2023/08/22 12:28:39;;;;;;;10.77;10.48;;;35.10;99.90;;;;;;6165136;23;20196;-79
2023/08/22 12:31:08;;;;;;;10.73;10.43;;;35.40;99.90;;;;;;6164445;23;20207;-79
2023/08/22 12:33:35;;;;;;;10.75;10.45;;;35.50;99.90;;;;;;6165330;23;20279;-79
2023/08/22 12:36:02;;;;;;;10.93;10.63;;;35.60;99.90;;;;;;6165562;23;20200;-79
2023/08/22 12:38:29;;;;;;;10.82;10.52;;;35.90;99.90;;;;;;6166354;23;20279;-79
2023/08/22 12:40:57;;;;;;;10.63;10.32;;;36.10;99.90;;;;;;6166392;23;20228;-78
2023/08/22 12:43:24;;;;;;;10.57;10.27;;;36.20;99.90;;;;;;6166676;23;20207;-79
2023/08/22 12:45:52;;;;;;;10.60;10.30;;;36.00;99.90;;;;;;6168136;23;20196;-80
2023/08/22 12:48:20;;;;;;;10.45;10.15;;;35.90;99.90;;;;;;6172325;23;20216;-78
2023/08/22 12:50:47;;;;;;;10.40;10.10;;;35.90;99.90;;;;;;6170027;23;20196;-78
2023/08/22 12:53:14;;;;;;;10.45;10.15;;;35.40;99.90;;;;;;6168089;23;20260;-77
2023/08/22 12:55:42;;;;;;;10.63;10.32;;;34.50;99.90;;;;;;6173697;23;20188;-78
2023/08/22 12:58:09;;;;;;;11.10;10.80;;;33.70;99.90;;;;;;6167898;23;20537;-78
2023/08/22 13:00:36;;;;;;;10.52;10.23;;;33.60;99.90;;;;;;6167296;23;20212;-78
2023/08/22 13:03:04;;;;;;;10.90;10.60;;;34.30;99.90;;;;;;6164863;23;20215;-78
2023/08/22 13:05:32;;;;;;;10.75;10.45;;;34.40;99.90;;;;;;6165131;23;20204;-78
2023/08/22 13:07:59;;;;;;;10.90;10.60;;;34.60;99.90;;;;;;6164931;23;20259;-77